createdAt,value
2019-01-12T00:01:47.796Z,13.77
2019-01-12T00:04:53.052Z,14.13
2019-01-12T00:07:58.148Z,12.93
2019-01-12T00:11:03.279Z,10.13
2019-01-12T00:14:08.442Z,10.70
2019-01-12T00:17:13.504Z,14.40
2019-01-12T00:20:18.639Z,12.93
2019-01-12T00:23:23.759Z,15.68
2019-01-12T00:26:28.795Z,12.83
2019-01-12T00:29:33.838Z,13.10
2019-01-12T00:32:38.954Z,12.80
2019-01-12T00:35:43.940Z,11.63
2019-01-12T00:38:48.907Z,13.63
2019-01-12T00:41:53.963Z,11.83
2019-01-12T00:44:58.939Z,13.53
2019-01-12T00:48:04.067Z,12.87
2019-01-12T00:51:09.231Z,11.47
2019-01-12T00:54:14.479Z,14.27
2019-01-12T00:57:19.532Z,14.97
2019-01-12T01:00:24.665Z,14.10
2019-01-12T01:03:29.775Z,13.80
2019-01-12T01:06:34.911Z,15.17
2019-01-12T01:09:40.012Z,16.20
2019-01-12T01:12:45.137Z,14.70
2019-01-12T01:15:50.370Z,15.37
2019-01-12T01:18:55.559Z,16.77
2019-01-12T01:22:00.699Z,19.13
2019-01-12T01:25:06.539Z,19.00
2019-01-12T01:28:11.644Z,18.40
2019-01-12T01:31:16.767Z,17.10
2019-01-12T01:34:21.879Z,19.07
2019-01-12T01:37:27.034Z,18.33
2019-01-12T01:40:32.233Z,17.63
2019-01-12T01:43:37.347Z,15.60
2019-01-12T01:46:42.470Z,18.67
2019-01-12T01:49:47.600Z,17.60
2019-01-12T01:52:52.727Z,17.70
2019-01-12T01:55:57.877Z,18.43
2019-01-12T01:59:02.995Z,18.33
2019-01-12T02:02:08.127Z,17.70
2019-01-12T02:05:13.451Z,17.20
2019-01-12T02:08:18.574Z,17.03
2019-01-12T02:11:23.607Z,16.07
2019-01-12T02:14:28.748Z,15.00
2019-01-12T02:17:33.859Z,13.77
2019-01-12T02:20:38.994Z,14.47
2019-01-12T02:23:43.968Z,13.40
2019-01-12T02:26:49.048Z,13.53
2019-01-12T02:29:57.368Z,15.17
2019-01-12T02:33:02.422Z,13.30
2019-01-12T02:36:07.532Z,13.30
2019-01-12T02:39:12.672Z,14.33
2019-01-12T02:42:17.808Z,13.70
2019-01-12T02:45:22.944Z,15.50
2019-01-12T02:48:28.061Z,13.37
2019-01-12T02:51:33.111Z,15.27
2019-01-12T02:54:38.085Z,15.33
2019-01-12T02:57:43.204Z,15.47
2019-01-12T03:00:48.237Z,15.40
2019-01-12T03:03:53.371Z,14.80
2019-01-12T03:06:58.503Z,13.97
2019-01-12T03:10:03.720Z,15.30
2019-01-12T03:13:08.840Z,15.03
2019-01-12T03:16:13.959Z,13.87
2019-01-12T03:19:19.082Z,14.63
2019-01-12T03:22:24.160Z,17.50
2019-01-12T03:25:29.258Z,19.50
2019-01-12T03:28:34.244Z,17.00
2019-01-12T03:31:39.370Z,16.53
2019-01-12T03:34:44.571Z,17.37
2019-01-12T03:37:49.623Z,17.53
2019-01-12T03:40:54.761Z,19.30
2019-01-12T03:43:59.788Z,17.70
2019-01-12T03:47:05.116Z,16.80
2019-01-12T03:50:11.320Z,16.33
2019-01-12T03:53:16.388Z,15.70
2019-01-12T03:56:21.437Z,15.17
2019-01-12T03:59:26.588Z,16.03
2019-01-12T04:02:33.028Z,17.80
2019-01-12T04:05:39.159Z,14.43
2019-01-12T04:08:45.423Z,14.10
2019-01-12T04:11:50.659Z,15.80
2019-01-12T04:14:55.785Z,14.80
2019-01-12T04:18:00.968Z,15.53
2019-01-12T04:21:06.075Z,15.17
2019-01-12T04:24:11.217Z,14.37
2019-01-12T04:27:16.329Z,15.50
2019-01-12T04:30:21.468Z,14.83
2019-01-12T04:33:26.612Z,13.20
2019-01-12T04:36:31.804Z,16.17
2019-01-12T04:39:36.829Z,14.00
2019-01-12T04:42:41.882Z,15.60
2019-01-12T04:45:46.915Z,13.07
2019-01-12T04:48:51.905Z,15.43
2019-01-12T04:51:57.084Z,16.43
2019-01-12T04:55:02.063Z,16.77
2019-01-12T04:58:07.179Z,15.90
2019-01-12T05:01:12.337Z,16.13
2019-01-12T05:04:17.381Z,14.77
2019-01-12T05:07:22.568Z,14.30
2019-01-12T05:10:27.747Z,14.07
2019-01-12T05:13:32.913Z,16.67
2019-01-12T05:16:38.018Z,16.00
2019-01-12T05:19:43.071Z,16.00
2019-01-12T05:22:48.287Z,15.07
2019-01-12T05:25:53.431Z,13.37
2019-01-12T05:28:58.425Z,16.20
2019-01-12T05:32:03.513Z,13.90
2019-01-12T05:35:08.623Z,13.30
2019-01-12T05:38:13.684Z,13.00
2019-01-12T05:41:18.800Z,12.50
2019-01-12T05:44:23.936Z,11.90
2019-01-12T05:47:28.980Z,10.93
2019-01-12T05:50:34.115Z,11.67
2019-01-12T05:53:39.155Z,10.97
2019-01-12T05:56:44.302Z,9.80
2019-01-12T05:59:49.760Z,10.40
2019-01-12T06:02:55.191Z,10.40
2019-01-12T06:06:00.589Z,9.73
2019-01-12T06:09:07.887Z,8.07
2019-01-12T06:12:13.065Z,8.93
2019-01-12T06:15:18.807Z,8.20
2019-01-12T06:18:23.908Z,9.40
2019-01-12T06:21:29.056Z,8.57
2019-01-12T06:24:34.091Z,9.30
2019-01-12T06:27:39.299Z,8.60
2019-01-12T06:30:44.343Z,9.43
2019-01-12T06:33:49.476Z,8.87
2019-01-12T06:36:54.604Z,9.10
2019-01-12T06:39:59.711Z,8.93
2019-01-12T06:43:04.832Z,9.30
2019-01-12T06:46:10.365Z,9.50
2019-01-12T06:49:15.575Z,9.40
2019-01-12T06:52:20.713Z,9.50
2019-01-12T06:55:25.686Z,9.43
2019-01-12T06:58:30.815Z,9.67
2019-01-12T07:01:36.089Z,9.30
2019-01-12T07:04:41.212Z,9.47
2019-01-12T07:07:46.251Z,9.90
2019-01-12T07:10:51.395Z,10.37
2019-01-12T07:13:57.793Z,9.60
2019-01-12T07:17:03.091Z,10.73
2019-01-12T07:20:11.174Z,12.70
2019-01-12T07:23:16.266Z,11.73
2019-01-12T07:26:21.384Z,11.57
2019-01-12T07:29:26.524Z,11.67
2019-01-12T07:32:31.551Z,11.00
2019-01-12T07:35:36.614Z,10.47
2019-01-12T07:38:41.664Z,11.63
2019-01-12T07:41:46.742Z,10.60
2019-01-12T07:44:51.711Z,9.80
2019-01-12T07:47:56.771Z,11.27
2019-01-12T07:51:01.872Z,10.90
2019-01-12T07:54:06.948Z,11.30
2019-01-12T07:57:12.108Z,10.90
2019-01-12T08:00:21.944Z,10.93
2019-01-12T08:03:27.067Z,10.70
2019-01-12T08:06:32.159Z,11.57
2019-01-12T08:09:37.488Z,11.17
2019-01-12T08:12:42.796Z,10.70
2019-01-12T08:15:47.844Z,11.27
2019-01-12T08:18:53.016Z,11.93
2019-01-12T08:21:59.222Z,11.67
2019-01-12T08:25:05.359Z,11.60
2019-01-12T08:28:10.424Z,11.23
2019-01-12T08:31:16.878Z,11.77
2019-01-12T08:34:22.065Z,10.97
2019-01-12T08:37:27.208Z,11.10
2019-01-12T08:40:32.352Z,11.30
2019-01-12T08:43:37.480Z,9.70
2019-01-12T08:46:42.732Z,11.07
2019-01-12T08:49:47.868Z,11.13
2019-01-12T08:52:52.976Z,9.10
2019-01-12T08:55:58.043Z,9.40
2019-01-12T08:59:03.144Z,8.60
2019-01-12T09:02:08.263Z,9.77
2019-01-12T09:05:13.772Z,10.60
2019-01-12T09:08:18.819Z,12.40
2019-01-12T09:11:23.923Z,9.00
2019-01-12T09:14:29.019Z,10.90
2019-01-12T09:17:34.236Z,10.50
2019-01-12T09:20:39.360Z,10.20
2019-01-12T09:23:44.476Z,10.80
2019-01-12T09:26:49.620Z,11.97
2019-01-12T09:29:54.667Z,10.77
2019-01-12T09:32:59.806Z,10.93
2019-01-12T09:36:05.048Z,11.37
2019-01-12T09:39:10.346Z,10.40
2019-01-12T09:42:15.579Z,17.73
2019-01-12T09:45:20.868Z,10.80
2019-01-12T09:48:25.938Z,11.80
2019-01-12T09:51:31.294Z,12.57
2019-01-12T09:54:37.459Z,11.37
2019-01-12T09:57:42.550Z,10.60
2019-01-12T10:00:47.691Z,9.20
2019-01-12T10:03:53.007Z,9.13
2019-01-12T10:06:58.116Z,8.40
2019-01-12T10:10:03.228Z,9.40
2019-01-12T10:13:08.352Z,10.17
2019-01-12T10:16:13.675Z,10.50
2019-01-12T10:19:18.908Z,10.47
2019-01-12T10:22:28.553Z,9.50
2019-01-12T10:25:30.960Z,9.30
2019-01-12T10:28:36.165Z,9.20
2019-01-12T10:31:42.615Z,9.20
2019-01-12T10:34:47.716Z,11.30
2019-01-12T10:37:52.873Z,11.43
2019-01-12T10:40:57.983Z,11.30
2019-01-12T10:44:03.056Z,10.90
2019-01-12T10:47:08.171Z,10.17
2019-01-12T10:50:16.576Z,10.43
2019-01-12T10:53:21.711Z,11.43
2019-01-12T10:56:26.850Z,10.13
2019-01-12T10:59:31.975Z,12.93
2019-01-12T11:02:37.106Z,14.20
2019-01-12T11:05:42.430Z,10.57
2019-01-12T11:08:47.655Z,11.00
2019-01-12T11:11:52.779Z,10.63
2019-01-12T11:14:58.001Z,10.10
2019-01-12T11:18:03.166Z,10.93
2019-01-12T11:21:08.423Z,12.80
2019-01-12T11:24:13.553Z,12.03
2019-01-12T11:27:19.093Z,11.37
2019-01-12T11:30:26.097Z,10.50
2019-01-12T11:33:31.278Z,12.10
2019-01-12T11:36:36.464Z,13.03
2019-01-12T11:39:41.594Z,10.30
2019-01-12T11:42:46.803Z,11.23
2019-01-12T11:45:51.939Z,10.10
2019-01-12T11:48:57.065Z,11.80
2019-01-12T11:52:02.126Z,11.90
2019-01-12T11:55:07.935Z,10.40
2019-01-12T11:58:13.052Z,10.17
2019-01-12T12:01:18.260Z,12.00
2019-01-12T12:04:23.417Z,10.33
2019-01-12T12:07:28.806Z,12.60
2019-01-12T12:10:33.984Z,12.77
2019-01-12T12:13:39.267Z,11.60
2019-01-12T12:16:44.309Z,12.90
2019-01-12T12:19:49.411Z,12.10
2019-01-12T12:22:54.564Z,11.77
2019-01-12T12:25:59.683Z,14.47
2019-01-12T12:29:04.899Z,13.00
2019-01-12T12:32:10.112Z,13.80
2019-01-12T12:35:15.241Z,14.13
2019-01-12T12:38:20.351Z,14.77
2019-01-12T12:41:25.573Z,11.97
2019-01-12T12:44:31.701Z,12.73
2019-01-12T12:47:36.823Z,14.10
2019-01-12T12:50:41.983Z,12.07
2019-01-12T12:53:47.507Z,12.10
2019-01-12T12:56:54.282Z,11.27
2019-01-12T13:00:02.955Z,12.77
2019-01-12T13:03:10.213Z,11.80
2019-01-12T13:06:17.054Z,14.00
2019-01-12T13:09:23.750Z,13.27
2019-01-12T13:12:30.642Z,12.70
2019-01-12T13:15:37.664Z,12.60
2019-01-12T13:18:44.761Z,12.57
2019-01-12T13:21:50.678Z,16.83
2019-01-12T13:24:56.807Z,14.40
2019-01-12T13:28:02.065Z,14.57
2019-01-12T13:31:07.234Z,14.70
2019-01-12T13:34:12.284Z,15.47
2019-01-12T13:37:17.399Z,16.13
2019-01-12T13:40:24.829Z,14.90
2019-01-12T13:43:29.928Z,15.70
2019-01-12T13:46:34.995Z,14.80
2019-01-12T13:49:40.136Z,14.40
2019-01-12T13:52:45.256Z,15.40
2019-01-12T13:55:50.369Z,14.83
2019-01-12T13:58:55.496Z,15.83
2019-01-12T14:02:00.533Z,13.80
2019-01-12T14:05:06.217Z,15.30
2019-01-12T14:08:11.262Z,15.17
2019-01-12T14:11:16.464Z,15.97
2019-01-12T14:14:21.529Z,14.70
2019-01-12T14:17:29.074Z,15.27
2019-01-12T14:20:39.130Z,14.00
2019-01-12T14:23:44.159Z,15.80
2019-01-12T14:26:49.292Z,16.43
2019-01-12T14:29:54.347Z,15.23
2019-01-12T14:32:59.480Z,15.17
2019-01-12T14:36:04.655Z,15.33
2019-01-12T14:39:10.808Z,13.73
2019-01-12T14:42:15.926Z,16.63
2019-01-12T14:45:23.440Z,15.30
2019-01-12T14:48:28.809Z,16.03
2019-01-12T14:51:33.856Z,17.50
2019-01-12T14:54:39.010Z,16.17
2019-01-12T14:57:44.057Z,15.90
2019-01-12T15:00:49.207Z,14.83
2019-01-12T15:03:54.430Z,16.23
2019-01-12T15:06:59.556Z,13.90
2019-01-12T15:10:05.466Z,15.10
2019-01-12T15:13:10.592Z,16.50
2019-01-12T15:16:15.637Z,15.07
2019-01-12T15:19:21.238Z,13.73
2019-01-12T15:22:26.503Z,14.63
2019-01-12T15:25:31.672Z,12.10
2019-01-12T15:28:36.807Z,13.70
2019-01-12T15:31:41.952Z,11.87
2019-01-12T15:34:47.036Z,11.67
2019-01-12T15:37:52.175Z,13.10
2019-01-12T15:40:57.162Z,14.73
2019-01-12T15:44:02.333Z,13.67
2019-01-12T15:47:07.436Z,12.57
2019-01-12T15:50:17.879Z,13.60
2019-01-12T15:53:22.847Z,14.30
2019-01-12T15:56:27.996Z,12.43
2019-01-12T15:59:33.107Z,14.17
2019-01-12T16:02:40.565Z,12.37
2019-01-12T16:05:45.712Z,11.60
2019-01-12T16:08:50.839Z,12.17
2019-01-12T16:11:55.959Z,10.67
2019-01-12T16:15:01.076Z,13.10
2019-01-12T16:18:06.189Z,13.23
2019-01-12T16:21:11.323Z,11.23
2019-01-12T16:24:16.463Z,10.80
2019-01-12T16:27:21.577Z,11.50
2019-01-12T16:30:26.638Z,10.77
2019-01-12T16:33:31.742Z,10.07
2019-01-12T16:36:36.890Z,10.90
2019-01-12T16:39:41.936Z,11.37
2019-01-12T16:42:47.048Z,10.43
2019-01-12T16:45:52.214Z,11.33
2019-01-12T16:48:57.387Z,10.47
2019-01-12T16:52:02.520Z,11.10
2019-01-12T16:55:09.199Z,10.83
2019-01-12T16:58:14.391Z,8.47
2019-01-12T17:01:19.675Z,11.40
2019-01-12T17:04:24.659Z,10.20
2019-01-12T17:07:29.798Z,13.97
2019-01-12T17:10:34.987Z,11.97
2019-01-12T17:13:40.250Z,10.40
2019-01-12T17:16:54.349Z,11.50
2019-01-12T17:19:59.620Z,10.57
2019-01-12T17:23:05.820Z,9.67
2019-01-12T17:26:10.880Z,8.93
2019-01-12T17:29:17.961Z,9.87
2019-01-12T17:32:22.690Z,9.50
2019-01-12T17:35:29.354Z,9.63
2019-01-12T17:38:34.639Z,9.27
2019-01-12T17:41:39.764Z,8.40
2019-01-12T17:44:44.895Z,7.10
2019-01-12T17:47:50.023Z,8.60
2019-01-12T17:50:55.153Z,7.70
2019-01-12T17:54:00.284Z,6.10
2019-01-12T17:57:06.090Z,5.40
2019-01-12T18:00:19.542Z,5.33
2019-01-12T18:03:24.685Z,6.20
2019-01-12T18:06:29.724Z,4.80
2019-01-12T18:09:34.860Z,5.30
2019-01-12T18:12:40.093Z,4.90
2019-01-12T18:15:45.335Z,5.00
2019-01-12T18:18:50.472Z,5.50
2019-01-12T18:21:57.785Z,4.20
2019-01-12T18:25:02.947Z,4.80
2019-01-12T18:28:08.072Z,5.23
2019-01-12T18:31:13.648Z,6.13
2019-01-12T18:34:18.623Z,4.87
2019-01-12T18:37:23.732Z,5.20
2019-01-12T18:40:28.871Z,4.77
2019-01-12T18:43:34.081Z,4.20
2019-01-12T18:46:39.415Z,5.53
2019-01-12T18:49:44.582Z,4.63
2019-01-12T18:52:49.817Z,4.63
2019-01-12T18:55:54.925Z,3.87
2019-01-12T18:59:00.048Z,3.47
2019-01-12T19:02:05.247Z,3.53
2019-01-12T19:05:10.397Z,4.23
2019-01-12T19:08:15.525Z,3.93
2019-01-12T19:11:20.583Z,4.37
2019-01-12T19:14:25.737Z,3.90
2019-01-12T19:17:30.779Z,4.47
2019-01-12T19:20:35.913Z,3.90
2019-01-12T19:23:40.945Z,3.03
2019-01-12T19:26:46.237Z,3.50
2019-01-12T19:29:51.475Z,3.53
2019-01-12T19:32:57.210Z,5.50
2019-01-12T19:36:02.406Z,4.13
2019-01-12T19:39:09.051Z,5.03
2019-01-12T19:42:15.593Z,7.70
2019-01-12T19:45:20.870Z,5.67
2019-01-12T19:48:26.028Z,4.70
2019-01-12T19:51:31.008Z,4.40
2019-01-12T19:54:36.039Z,4.20
2019-01-12T19:57:41.880Z,4.07
2019-01-12T20:00:47.005Z,4.90
2019-01-12T20:03:52.140Z,5.80
2019-01-12T20:06:57.167Z,5.20
2019-01-12T20:10:02.293Z,3.93
2019-01-12T20:13:07.412Z,4.80
2019-01-12T20:16:12.524Z,4.07
2019-01-12T20:19:17.645Z,3.67
2019-01-12T20:22:22.787Z,3.10
2019-01-12T20:25:29.555Z,3.10
2019-01-12T20:28:34.724Z,4.28
2019-01-12T20:32:12.911Z,2.80
2019-01-12T20:35:48.521Z,3.37
2019-01-12T20:39:23.856Z,2.30
2019-01-12T20:43:04.817Z,2.57
2019-01-12T20:47:02.825Z,2.40
2019-01-12T20:50:31.655Z,2.50
2019-01-12T20:53:51.059Z,2.53
2019-01-12T20:57:30.898Z,2.43
2019-01-12T21:01:11.929Z,2.27
2019-01-12T21:04:50.876Z,2.50
2019-01-12T21:08:40.087Z,2.50
2019-01-12T21:12:27.628Z,2.50
2019-01-12T21:15:36.903Z,2.20
2019-01-12T21:18:41.941Z,2.63
2019-01-12T21:21:47.086Z,2.10
2019-01-12T21:24:52.217Z,2.30
2019-01-12T21:27:57.322Z,2.17
2019-01-12T21:31:02.420Z,1.70
2019-01-12T21:34:07.488Z,2.27
2019-01-12T21:37:12.592Z,3.23
2019-01-12T21:40:17.653Z,2.73
2019-01-12T21:43:22.760Z,2.07
2019-01-12T21:46:27.813Z,2.17
2019-01-12T21:49:32.827Z,6.07
2019-01-12T21:52:37.896Z,3.40
2019-01-12T21:55:42.910Z,8.27
2019-01-12T21:58:47.963Z,3.73
2019-01-12T22:01:53.123Z,4.97
2019-01-12T22:04:58.316Z,6.80
2019-01-12T22:08:03.522Z,4.83
2019-01-12T22:11:08.758Z,2.80
2019-01-12T22:14:13.868Z,3.17
2019-01-12T22:17:18.995Z,4.20
2019-01-12T22:20:24.103Z,2.73
2019-01-12T22:23:29.080Z,3.10
2019-01-12T22:26:34.103Z,2.63
2019-01-12T22:29:39.160Z,2.23
2019-01-12T22:32:44.282Z,2.00
2019-01-12T22:35:49.416Z,3.23
2019-01-12T22:38:54.388Z,2.60
2019-01-12T22:41:59.511Z,2.63
2019-01-12T22:45:04.765Z,2.90
2019-01-12T22:48:09.876Z,3.30
2019-01-12T22:51:14.895Z,2.73
2019-01-12T22:54:20.796Z,2.60
2019-01-12T22:57:25.844Z,2.77
2019-01-12T23:00:43.823Z,3.00
2019-01-12T23:03:49.546Z,2.57
2019-01-12T23:06:54.592Z,2.50
2019-01-12T23:09:59.767Z,3.20
2019-01-12T23:13:05.095Z,2.90
2019-01-12T23:16:10.210Z,2.03
2019-01-12T23:19:15.387Z,2.73
2019-01-12T23:22:20.519Z,2.97
2019-01-12T23:25:25.583Z,2.63
2019-01-12T23:28:30.606Z,2.80
2019-01-12T23:31:35.770Z,2.70
2019-01-12T23:34:40.799Z,3.03
2019-01-12T23:37:45.931Z,3.03
2019-01-12T23:40:51.435Z,3.20
2019-01-12T23:43:56.539Z,3.53
2019-01-12T23:47:01.618Z,3.20
2019-01-12T23:50:07.371Z,2.90
2019-01-12T23:53:12.474Z,3.33
2019-01-12T23:56:17.595Z,2.67
2019-01-12T23:59:22.629Z,3.77
